createdAt,value
2019-05-25T00:02:09.515Z,100014.42
2019-05-25T00:04:44.551Z,100015.82
2019-05-25T00:07:16.902Z,100016.10
2019-05-25T00:09:49.080Z,100015.82
2019-05-25T00:12:20.848Z,100018.34
2019-05-25T00:14:53.886Z,100022.56
2019-05-25T00:17:25.477Z,100023.12
2019-05-25T00:19:58.935Z,100031.50
2019-05-25T00:22:31.758Z,100037.12
2019-05-25T00:25:03.571Z,100035.43
2019-05-25T00:27:37.314Z,100034.59
2019-05-25T00:30:09.811Z,100027.01
2019-05-25T00:32:41.345Z,100029.78
2019-05-25T00:35:13.612Z,100020.79
2019-05-25T00:37:47.217Z,100009.00
2019-05-25T00:40:18.765Z,100012.09
2019-05-25T00:42:50.825Z,100005.64
2019-05-25T00:45:23.704Z,100011.57
2019-05-25T00:47:56.906Z,100003.72
2019-05-25T00:50:28.356Z,100008.77
2019-05-25T00:52:59.801Z,100004.56
2019-05-25T00:55:31.862Z,100003.44
2019-05-25T00:58:03.224Z,100005.40
2019-05-25T01:00:35.068Z,100003.16
2019-05-25T01:03:06.827Z,100006.52
2019-05-25T01:05:38.487Z,99994.73
2019-05-25T01:08:10.193Z,99990.77
2019-05-25T01:10:41.793Z,99986.27
2019-05-25T01:13:13.541Z,99988.24
2019-05-25T01:15:45.400Z,99992.20
2019-05-25T01:18:16.953Z,99987.40
2019-05-25T01:20:49.124Z,99992.45
2019-05-25T01:23:20.671Z,100002.27
2019-05-25T01:25:52.379Z,100001.42
2019-05-25T01:28:24.388Z,99985.42
2019-05-25T01:30:55.611Z,99987.35
2019-05-25T01:33:27.505Z,99989.36
2019-05-25T01:36:00.069Z,99983.47
2019-05-25T01:38:31.763Z,99986.55
2019-05-25T01:41:05.411Z,99988.52
2019-05-25T01:43:39.852Z,99988.52
2019-05-25T01:46:11.395Z,99980.66
2019-05-25T01:48:43.870Z,99988.80
2019-05-25T01:51:15.619Z,99992.72
2019-05-25T01:53:47.281Z,99990.77
2019-05-25T01:56:20.902Z,99991.05
2019-05-25T01:58:53.690Z,99994.41
2019-05-25T02:01:25.327Z,100001.43
2019-05-25T02:03:57.589Z,100000.03
2019-05-25T02:06:29.750Z,99996.94
2019-05-25T02:09:01.712Z,99991.61
2019-05-25T02:11:34.487Z,100000.55
2019-05-25T02:14:06.509Z,99997.45
2019-05-25T02:16:38.312Z,99997.73
2019-05-25T02:19:10.170Z,100007.03
2019-05-25T02:21:42.242Z,100010.92
2019-05-25T02:24:14.713Z,100003.07
2019-05-25T02:26:48.642Z,99995.50
2019-05-25T02:29:20.006Z,99997.49
2019-05-25T02:31:52.972Z,99994.97
2019-05-25T02:34:25.519Z,100002.27
2019-05-25T02:36:57.232Z,100004.52
2019-05-25T02:39:31.283Z,100006.42
2019-05-25T02:42:02.938Z,100006.47
2019-05-25T02:44:36.693Z,100010.69
2019-05-25T02:47:08.343Z,100010.13
2019-05-25T02:49:40.763Z,100011.24
2019-05-25T02:52:13.687Z,100009.84
2019-05-25T02:54:45.523Z,100009.05
2019-05-25T02:57:18.193Z,100015.22
2019-05-25T02:59:50.356Z,100011.33
2019-05-25T03:02:25.693Z,100019.50
2019-05-25T03:04:57.551Z,100018.97
2019-05-25T03:07:30.424Z,100018.97
2019-05-25T03:10:02.187Z,100015.88
2019-05-25T03:12:33.918Z,100018.12
2019-05-25T03:15:09.287Z,100005.48
2019-05-25T03:17:41.862Z,100021.80
2019-05-25T03:20:13.875Z,100025.16
2019-05-25T03:22:46.196Z,100026.28
2019-05-25T03:25:19.730Z,100026.33
2019-05-25T03:27:50.941Z,100024.36
2019-05-25T03:30:36.609Z,100023.52
2019-05-25T03:33:07.723Z,100026.06
2019-05-25T03:35:39.941Z,100019.05
2019-05-25T03:38:14.249Z,100028.30
2019-05-25T03:40:45.798Z,100024.94
2019-05-25T03:43:18.169Z,100028.02
2019-05-25T03:45:49.769Z,100034.48
2019-05-25T03:48:24.854Z,100029.98
2019-05-25T03:50:58.250Z,100032.23
2019-05-25T03:53:33.079Z,100027.99
2019-05-25T03:56:06.681Z,100028.86
2019-05-25T03:58:38.239Z,100026.30
2019-05-25T04:01:10.939Z,100026.27
2019-05-25T04:03:45.032Z,100018.36
2019-05-25T04:06:19.017Z,100013.87
2019-05-25T04:08:51.506Z,100019.23
2019-05-25T04:11:25.754Z,100015.86
2019-05-25T04:13:57.265Z,100015.03
2019-05-25T04:16:29.242Z,100024.05
2019-05-25T04:19:02.012Z,100015.32
2019-05-25T04:21:34.796Z,100020.37
2019-05-25T04:24:06.663Z,100015.58
2019-05-25T04:26:38.921Z,100012.80
2019-05-25T04:29:12.516Z,100021.23
2019-05-25T04:31:45.478Z,100024.87
2019-05-25T04:34:18.800Z,100026.84
2019-05-25T04:36:50.222Z,100023.17
2019-05-25T04:39:21.946Z,100032.73
2019-05-25T04:41:54.678Z,100040.31
2019-05-25T04:44:26.028Z,100036.63
2019-05-25T04:46:59.904Z,100032.11
2019-05-25T04:49:31.590Z,100036.13
2019-05-25T04:52:04.791Z,100031.88
2019-05-25T04:54:36.459Z,100033.02
2019-05-25T04:57:08.140Z,100031.66
2019-05-25T04:59:41.665Z,100048.52
2019-05-25T05:02:14.072Z,100043.14
2019-05-25T05:04:47.768Z,100032.38
2019-05-25T05:07:20.131Z,100034.80
2019-05-25T05:10:02.218Z,100034.47
2019-05-25T05:12:28.151Z,100047.99
2019-05-25T05:14:59.594Z,100047.27
2019-05-25T05:17:34.470Z,100039.08
2019-05-25T05:20:09.354Z,100048.11
2019-05-25T05:22:40.624Z,100052.38
2019-05-25T05:25:15.260Z,100048.73
2019-05-25T05:27:46.669Z,100065.91
2019-05-25T05:30:21.660Z,100055.23
2019-05-25T05:32:53.521Z,100059.17
2019-05-25T05:35:26.961Z,100058.59
2019-05-25T05:38:02.096Z,100050.47
2019-05-25T05:40:36.631Z,100056.95
2019-05-25T05:43:11.857Z,100052.13
2019-05-25T05:45:48.964Z,100041.34
2019-05-25T05:48:23.764Z,100044.10
2019-05-25T05:50:59.514Z,100048.50
2019-05-25T05:53:36.419Z,100042.98
2019-05-25T05:56:09.583Z,100045.44
2019-05-25T05:58:41.946Z,100052.15
2019-05-25T06:01:14.323Z,100053.02
2019-05-25T06:03:46.440Z,100054.43
2019-05-25T06:06:19.236Z,100067.66
2019-05-25T06:08:51.217Z,100064.81
2019-05-25T06:11:23.294Z,100063.28
2019-05-25T06:13:55.157Z,100067.63
2019-05-25T06:16:28.946Z,100062.52
2019-05-25T06:19:01.564Z,100055.99
2019-05-25T06:21:34.976Z,100052.20
2019-05-25T06:24:09.137Z,100047.34
2019-05-25T06:26:42.535Z,100044.02
2019-05-25T06:29:14.392Z,100042.75
2019-05-25T06:31:46.455Z,100034.02
2019-05-25T06:34:19.032Z,100031.38
2019-05-25T06:36:51.712Z,100029.86
2019-05-25T06:39:24.555Z,100027.39
2019-05-25T06:41:59.015Z,100027.44
2019-05-25T06:44:32.618Z,100027.50
2019-05-25T06:47:10.310Z,100023.95
2019-05-25T06:49:43.189Z,100019.49
2019-05-25T06:52:17.410Z,100017.34
2019-05-25T06:54:49.610Z,100024.28
2019-05-25T06:57:23.382Z,100021.47
2019-05-25T06:59:55.134Z,100026.78
2019-05-25T07:02:27.077Z,100024.17
2019-05-25T07:05:00.490Z,100024.77
2019-05-25T07:07:33.618Z,100018.41
2019-05-25T07:10:09.387Z,100023.44
2019-05-25T07:12:40.710Z,100019.87
2019-05-25T07:15:14.573Z,100015.18
2019-05-25T07:17:45.655Z,100008.05
2019-05-25T07:20:17.294Z,100003.16
2019-05-25T07:22:50.269Z,100003.47
2019-05-25T07:25:22.442Z,100007.00
2019-05-25T07:27:59.889Z,100003.70
2019-05-25T07:30:27.896Z,100011.21
2019-05-25T07:33:01.042Z,100007.91
2019-05-25T07:35:35.031Z,100004.93
2019-05-25T07:38:08.191Z,100002.08
2019-05-25T07:40:41.469Z,99998.09
2019-05-25T07:43:12.925Z,100001.88
2019-05-25T07:45:45.799Z,99997.64
2019-05-25T07:48:19.123Z,99994.75
2019-05-25T07:50:50.891Z,99995.02
2019-05-25T07:53:25.773Z,99991.76
2019-05-25T07:55:57.392Z,99997.77
2019-05-25T07:58:29.736Z,100000.41
2019-05-25T08:01:01.627Z,100004.58
2019-05-25T08:03:34.535Z,100006.28
2019-05-25T08:06:09.072Z,100006.05
2019-05-25T08:08:43.075Z,100002.33
2019-05-25T08:11:15.868Z,100008.85
2019-05-25T08:13:49.314Z,100009.33
2019-05-25T08:16:21.220Z,100004.30
2019-05-25T08:18:52.885Z,100008.33
2019-05-25T08:21:24.540Z,100001.66
2019-05-25T08:23:57.412Z,100001.33
2019-05-25T08:26:32.534Z,99994.64
2019-05-25T08:29:07.647Z,99988.86
2019-05-25T08:31:41.435Z,99977.47
2019-05-25T08:34:13.193Z,99979.59
2019-05-25T08:36:47.041Z,99979.98
2019-05-25T08:39:19.104Z,99969.25
2019-05-25T08:41:50.676Z,99970.18
2019-05-25T08:44:23.746Z,99972.16
2019-05-25T08:46:55.751Z,99977.45
2019-05-25T08:49:28.481Z,99983.30
2019-05-25T08:51:59.835Z,99994.47
2019-05-25T08:54:31.902Z,99999.28
2019-05-25T08:57:03.543Z,99989.46
2019-05-25T08:59:35.250Z,99980.10
2019-05-25T09:02:07.061Z,99966.28
2019-05-25T09:04:42.403Z,99964.64
2019-05-25T09:07:14.418Z,99956.77
2019-05-25T09:09:47.340Z,99948.84
2019-05-25T09:12:19.193Z,99943.77
2019-05-25T09:14:50.820Z,99946.97
2019-05-25T09:17:23.030Z,99954.48
2019-05-25T09:19:56.003Z,99959.01
2019-05-25T09:22:28.188Z,99950.52
2019-05-25T09:25:00.366Z,99947.89
2019-05-25T09:27:32.206Z,99947.30
2019-05-25T09:30:05.123Z,99950.98
2019-05-25T09:32:37.155Z,99937.33
2019-05-25T09:35:13.554Z,99931.66
2019-05-25T09:37:45.808Z,99937.33
2019-05-25T09:40:17.216Z,99935.91
2019-05-25T09:42:49.416Z,99924.13
2019-05-25T09:45:21.114Z,99927.80
2019-05-25T09:47:55.259Z,99922.56
2019-05-25T09:50:27.957Z,99912.63
2019-05-25T09:52:59.767Z,99914.02
2019-05-25T09:55:33.919Z,99912.47
2019-05-25T09:58:05.885Z,99919.17
2019-05-25T10:00:40.281Z,99917.63
2019-05-25T10:03:11.066Z,99914.91
2019-05-25T10:05:46.681Z,99912.67
2019-05-25T10:08:19.780Z,99914.81
2019-05-25T10:10:53.877Z,99912.60
2019-05-25T10:13:26.394Z,99903.77
2019-05-25T10:15:59.026Z,99907.66
2019-05-25T10:18:30.385Z,99906.97
2019-05-25T10:21:04.826Z,99897.73
2019-05-25T10:23:36.355Z,99899.38
2019-05-25T10:26:07.924Z,99926.02
2019-05-25T10:28:41.947Z,99947.39
2019-05-25T10:31:15.329Z,99975.84
2019-05-25T10:33:48.389Z,100008.85
2019-05-25T10:36:20.989Z,100003.22
2019-05-25T10:38:54.873Z,100002.63
2019-05-25T10:41:28.025Z,99993.24
2019-05-25T10:43:59.615Z,100006.84
2019-05-25T10:46:33.113Z,100012.88
2019-05-25T10:49:05.278Z,100009.23
2019-05-25T10:51:36.943Z,100006.41
2019-05-25T10:54:08.687Z,99992.02
2019-05-25T10:56:40.884Z,99975.94
2019-05-25T10:59:12.150Z,99973.83
2019-05-25T11:01:44.585Z,99966.17
2019-05-25T11:04:18.635Z,99957.61
2019-05-25T11:06:51.492Z,99944.81
2019-05-25T11:09:25.588Z,99940.36
2019-05-25T11:11:59.181Z,99937.77
2019-05-25T11:14:30.943Z,99944.11
2019-05-25T11:17:02.599Z,99945.95
2019-05-25T11:19:35.786Z,99955.31
2019-05-25T11:22:17.708Z,99950.27
2019-05-25T11:24:50.762Z,99948.89
2019-05-25T11:27:23.026Z,99953.43
2019-05-25T11:30:08.059Z,99944.40
2019-05-25T11:32:30.026Z,99946.43
2019-05-25T11:35:01.918Z,99943.89
2019-05-25T11:37:36.400Z,99950.86
2019-05-25T11:40:09.368Z,99944.14
2019-05-25T11:42:42.736Z,99964.10
2019-05-25T11:45:14.827Z,99980.84
2019-05-25T11:47:46.095Z,99980.75
2019-05-25T11:50:18.351Z,99983.63
2019-05-25T11:52:50.239Z,99989.22
2019-05-25T11:55:22.178Z,99978.70
2019-05-25T11:57:56.092Z,99979.82
2019-05-25T12:00:28.205Z,99978.80
2019-05-25T12:02:59.571Z,99976.27
2019-05-25T12:05:33.402Z,99979.73
2019-05-25T12:08:05.139Z,99985.98
2019-05-25T12:10:37.526Z,99986.07
2019-05-25T12:13:11.232Z,99983.81
2019-05-25T12:15:44.426Z,99974.44
2019-05-25T12:18:16.282Z,99973.89
2019-05-25T12:20:48.245Z,99969.92
2019-05-25T12:23:21.224Z,99960.48
2019-05-25T12:25:53.807Z,99958.85
2019-05-25T12:28:26.785Z,99960.73
2019-05-25T12:31:00.305Z,99961.99
2019-05-25T12:33:33.041Z,99963.78
2019-05-25T12:36:07.665Z,99964.14
2019-05-25T12:38:40.521Z,99958.72
2019-05-25T12:41:12.229Z,99966.74
2019-05-25T12:43:44.494Z,99965.66
2019-05-25T12:46:15.989Z,99961.03
2019-05-25T12:48:48.525Z,99950.54
2019-05-25T12:51:20.585Z,99946.66
2019-05-25T12:53:52.343Z,99925.96
2019-05-25T12:56:26.162Z,99920.84
2019-05-25T12:58:59.736Z,99915.03
2019-05-25T13:01:32.319Z,99905.41
2019-05-25T13:04:03.571Z,99905.50
2019-05-25T13:06:38.743Z,99906.77
2019-05-25T13:09:10.763Z,99894.52
2019-05-25T13:11:45.393Z,99895.36
2019-05-25T13:14:17.990Z,99888.52
2019-05-25T13:16:50.539Z,99895.80
2019-05-25T13:19:22.805Z,99893.02
2019-05-25T13:21:55.339Z,99900.48
2019-05-25T13:24:28.397Z,99898.55
2019-05-25T13:26:59.516Z,99896.97
2019-05-25T13:29:32.496Z,99899.81
2019-05-25T13:32:05.808Z,99898.60
2019-05-25T13:34:37.803Z,99898.38
2019-05-25T13:37:09.963Z,99889.81
2019-05-25T13:39:42.094Z,99889.91
2019-05-25T13:42:13.187Z,99889.20
2019-05-25T13:44:44.778Z,99884.09
2019-05-25T13:47:16.330Z,99876.27
2019-05-25T13:49:49.313Z,99873.12
2019-05-25T13:52:20.889Z,99873.13
2019-05-25T13:54:52.954Z,99868.27
2019-05-25T13:57:24.602Z,99870.63
2019-05-25T13:59:56.042Z,99866.98
2019-05-25T14:02:27.888Z,99874.61
2019-05-25T14:05:01.901Z,99865.63
2019-05-25T14:07:36.219Z,99850.17
2019-05-25T14:10:11.865Z,99850.61
2019-05-25T14:12:44.141Z,99849.55
2019-05-25T14:15:16.122Z,99849.00
2019-05-25T14:17:48.616Z,99852.17
2019-05-25T14:20:20.226Z,99850.83
2019-05-25T14:22:51.687Z,99853.72
2019-05-25T14:25:23.142Z,99851.55
2019-05-25T14:27:56.629Z,99841.41
2019-05-25T14:30:30.226Z,99837.63
2019-05-25T14:33:04.435Z,99843.70
2019-05-25T14:35:38.271Z,99850.43
2019-05-25T14:38:09.686Z,99847.64
2019-05-25T14:40:42.876Z,99843.86
2019-05-25T14:43:15.470Z,99840.94
2019-05-25T14:45:47.117Z,99809.75
2019-05-25T14:48:21.123Z,99839.60
2019-05-25T14:50:52.624Z,99842.28
2019-05-25T14:53:26.046Z,99848.83
2019-05-25T14:56:00.379Z,99845.73
2019-05-25T14:58:31.831Z,99849.27
2019-05-25T15:01:06.169Z,99852.24
2019-05-25T15:03:37.392Z,99849.75
2019-05-25T15:06:09.730Z,99854.64
2019-05-25T15:08:41.736Z,99851.66
2019-05-25T15:11:14.400Z,99849.28
2019-05-25T15:13:46.303Z,99849.94
2019-05-25T15:16:21.190Z,99852.71
2019-05-25T15:18:52.588Z,99849.24
2019-05-25T15:21:25.940Z,99853.89
2019-05-25T15:23:58.408Z,99858.26
2019-05-25T15:26:31.906Z,99854.77
2019-05-25T15:29:03.658Z,99861.87
2019-05-25T15:31:36.545Z,99867.55
2019-05-25T15:34:08.706Z,99859.62
2019-05-25T15:36:42.000Z,99859.88
2019-05-25T15:39:13.736Z,99857.66
2019-05-25T15:41:48.792Z,99863.91
2019-05-25T15:44:20.446Z,99866.85
2019-05-25T15:46:54.797Z,99865.03
2019-05-25T15:49:33.454Z,99867.75
2019-05-25T15:52:03.600Z,99860.84
2019-05-25T15:54:37.728Z,99869.31
2019-05-25T15:57:12.749Z,99868.70
2019-05-25T15:59:44.214Z,99864.45
2019-05-25T16:02:15.625Z,99856.74
2019-05-25T16:04:47.197Z,99855.91
2019-05-25T16:07:20.909Z,99860.53
2019-05-25T16:09:53.270Z,99863.97
2019-05-25T16:12:24.316Z,99858.45
2019-05-25T16:14:57.593Z,99860.00
2019-05-25T16:17:31.207Z,99854.73
2019-05-25T16:20:03.371Z,99861.49
2019-05-25T16:22:40.156Z,99862.53
2019-05-25T16:25:12.513Z,99858.92
2019-05-25T16:27:45.607Z,99858.78
2019-05-25T16:30:17.831Z,99853.12
2019-05-25T16:35:27.964Z,99851.41
2019-05-25T16:38:02.150Z,99856.08
2019-05-25T16:40:35.956Z,99852.22
2019-05-25T16:43:09.686Z,99862.01
2019-05-25T16:45:41.184Z,99858.09
2019-05-25T16:48:13.796Z,99865.60
2019-05-25T16:50:46.108Z,99858.21
2019-05-25T16:53:19.861Z,99860.12
2019-05-25T16:55:54.586Z,99863.42
2019-05-25T16:58:27.779Z,99857.98
2019-05-25T17:01:00.165Z,99861.22
2019-05-25T17:03:31.426Z,99863.02
2019-05-25T17:06:04.775Z,99861.17
2019-05-25T17:08:39.307Z,99863.09
2019-05-25T17:11:12.426Z,99862.24
2019-05-25T17:13:46.413Z,99856.84
2019-05-25T17:16:19.123Z,99856.28
2019-05-25T17:18:52.636Z,99855.98
2019-05-25T17:21:24.343Z,99856.36
2019-05-25T17:23:56.809Z,99853.57
2019-05-25T17:26:31.023Z,99857.58
2019-05-25T17:29:05.137Z,99856.20
2019-05-25T17:31:40.378Z,99849.80
2019-05-25T17:34:11.925Z,99848.77
2019-05-25T17:36:43.581Z,99852.73
2019-05-25T17:39:14.824Z,99844.90
2019-05-25T17:41:48.836Z,99843.80
2019-05-25T17:44:21.207Z,99847.81
2019-05-25T17:46:54.095Z,99858.80
2019-05-25T17:49:27.584Z,99858.84
2019-05-25T17:51:59.035Z,99863.08
2019-05-25T17:54:31.610Z,99861.42
2019-05-25T17:57:03.926Z,99873.21
2019-05-25T17:59:36.760Z,99874.36
2019-05-25T18:02:09.700Z,99878.86
2019-05-25T18:04:42.425Z,99876.92
2019-05-25T18:07:14.076Z,99874.39
2019-05-25T18:09:45.793Z,99877.81
2019-05-25T18:12:20.457Z,99883.77
2019-05-25T18:14:53.037Z,99888.82
2019-05-25T18:17:24.895Z,99885.16
2019-05-25T18:19:56.858Z,99883.50
2019-05-25T18:22:31.017Z,99884.05
2019-05-25T18:25:07.349Z,99885.21
2019-05-25T18:27:38.722Z,99884.92
2019-05-25T18:30:12.678Z,99889.42
2019-05-25T18:32:45.259Z,99891.38
2019-05-25T18:35:17.190Z,99893.89
2019-05-25T18:37:51.117Z,99894.78
2019-05-25T18:40:23.049Z,99894.78
2019-05-25T18:42:54.646Z,99891.67
2019-05-25T18:45:31.727Z,99896.72
2019-05-25T18:48:04.813Z,99894.18
2019-05-25T18:50:36.462Z,99894.77
2019-05-25T18:53:11.452Z,99897.05
2019-05-25T18:55:44.073Z,99891.16
2019-05-25T18:58:17.844Z,99890.02
2019-05-25T19:00:51.277Z,99891.69
2019-05-25T19:03:24.841Z,99888.61
2019-05-25T19:05:56.369Z,99873.49
2019-05-25T19:08:27.854Z,99890.31
2019-05-25T19:11:02.193Z,99892.31
2019-05-25T19:13:36.912Z,99889.50
2019-05-25T19:16:08.660Z,99854.93
2019-05-25T19:18:42.576Z,99888.94
2019-05-25T19:21:15.045Z,99890.62
2019-05-25T19:23:50.699Z,99895.95
2019-05-25T19:26:22.671Z,99890.89
2019-05-25T19:28:58.514Z,99895.95
2019-05-25T19:31:30.046Z,99890.91
2019-05-25T19:34:02.854Z,99884.70
2019-05-25T19:36:35.424Z,99877.95
2019-05-25T19:39:08.718Z,99878.22
2019-05-25T19:41:40.431Z,99881.33
2019-05-25T19:44:12.131Z,99882.46
2019-05-25T19:46:46.411Z,99885.57
2019-05-25T19:49:18.394Z,99879.93
2019-05-25T19:51:50.899Z,99870.95
2019-05-25T19:54:24.791Z,99882.20
2019-05-25T19:56:56.422Z,99878.23
2019-05-25T19:59:28.141Z,99872.33
2019-05-25T20:02:01.496Z,99881.30
2019-05-25T20:04:33.131Z,99874.58
2019-05-25T20:07:06.267Z,99876.53
2019-05-25T20:09:41.468Z,99877.94
2019-05-25T20:12:13.024Z,99878.23
2019-05-25T20:14:47.028Z,99873.77
2019-05-25T20:17:20.528Z,99883.87
2019-05-25T20:19:52.692Z,99879.95
2019-05-25T20:22:24.569Z,99879.09
2019-05-25T20:24:58.157Z,99882.16
2019-05-25T20:27:33.600Z,99881.61
2019-05-25T20:30:09.488Z,99881.05
2019-05-25T20:32:41.211Z,99880.50
2019-05-25T20:35:14.040Z,99880.23
2019-05-25T20:37:45.577Z,99873.77
2019-05-25T20:40:18.522Z,99865.34
2019-05-25T20:42:51.301Z,99875.17
2019-05-25T20:45:24.551Z,99875.73
2019-05-25T20:47:56.132Z,99875.18
2019-05-25T20:50:29.337Z,99880.23
2019-05-25T20:53:03.654Z,99886.41
2019-05-25T20:55:36.169Z,99886.69
2019-05-25T20:58:09.439Z,99884.43
2019-05-25T21:00:42.766Z,99883.89
2019-05-25T21:03:14.878Z,99881.09
2019-05-25T21:05:50.609Z,99887.52
2019-05-25T21:08:21.973Z,99885.00
2019-05-25T21:10:53.756Z,99880.79
2019-05-25T21:13:27.227Z,99882.76
2019-05-25T21:15:59.085Z,99883.89
2019-05-25T21:18:30.741Z,99889.76
2019-05-25T21:21:02.209Z,99884.71
2019-05-25T21:23:35.714Z,99883.88
2019-05-25T21:26:08.469Z,99883.30
2019-05-25T21:28:40.027Z,99885.55
2019-05-25T21:31:13.932Z,99884.42
2019-05-25T21:33:46.501Z,99888.05
2019-05-25T21:36:17.784Z,99884.68
2019-05-25T21:38:50.731Z,99882.44
2019-05-25T21:41:23.819Z,99885.27
2019-05-25T21:43:55.883Z,99880.22
2019-05-25T21:46:27.537Z,99882.19
2019-05-25T21:49:00.422Z,99872.92
2019-05-25T21:51:34.429Z,99873.78
2019-05-25T21:54:07.825Z,99876.30
2019-05-25T21:56:43.288Z,99876.86
2019-05-25T21:59:16.764Z,99883.04
2019-05-25T22:01:48.368Z,99883.02
2019-05-25T22:04:20.584Z,99890.33
2019-05-25T22:06:52.559Z,99881.88
2019-05-25T22:09:26.659Z,99887.22
2019-05-25T22:11:59.075Z,99886.63
2019-05-25T22:14:31.091Z,99880.17
2019-05-25T22:17:04.537Z,99888.03
2019-05-25T22:19:37.470Z,99881.58
2019-05-25T22:22:10.679Z,99884.38
2019-05-25T22:24:44.960Z,99887.47
2019-05-25T22:27:20.219Z,99879.02
2019-05-25T22:29:53.404Z,99881.80
2019-05-25T22:32:26.081Z,99880.67
2019-05-25T22:34:59.800Z,99878.98
2019-05-25T22:37:32.263Z,99880.95
2019-05-25T22:40:08.217Z,99884.03
2019-05-25T22:42:40.368Z,99880.67
2019-05-25T22:45:12.344Z,99882.08
2019-05-25T22:47:43.717Z,99880.67
2019-05-25T22:50:18.207Z,99881.80
2019-05-25T22:52:50.672Z,99876.98
2019-05-25T22:55:25.677Z,99872.50
2019-05-25T22:57:58.163Z,99874.98
2019-05-25T23:00:32.196Z,99873.57
2019-05-25T23:03:06.547Z,99864.87
2019-05-25T23:05:39.306Z,99870.77
2019-05-25T23:08:13.505Z,99864.32
2019-05-25T23:10:45.982Z,99860.92
2019-05-25T23:13:18.442Z,99862.36
2019-05-25T23:15:50.216Z,99864.03
2019-05-25T23:18:23.266Z,99870.77
2019-05-25T23:20:56.325Z,99866.28
2019-05-25T23:23:28.047Z,99864.59
2019-05-25T23:26:00.444Z,99865.41
2019-05-25T23:28:32.492Z,99864.56
2019-05-25T23:31:05.158Z,99869.31
2019-05-25T23:33:37.222Z,99867.07
2019-05-25T23:36:08.494Z,99870.12
2019-05-25T23:38:42.358Z,99863.95
2019-05-25T23:41:14.023Z,99861.98
2019-05-25T23:43:45.786Z,99860.02
2019-05-25T23:46:18.249Z,99856.66
2019-05-25T23:48:51.989Z,99858.57
2019-05-25T23:51:23.504Z,99854.35
2019-05-25T23:53:56.809Z,99862.20
2019-05-25T23:56:28.566Z,99857.14
2019-05-25T23:59:00.055Z,99850.70
